METAR Data
IDs: Format: Raw Decoded Include TAF

Data at: 0701 UTC 03 Aug 2021

KE16 030635Z AUTO 15003KT 10SM 16/13 A3007 RMK AO2 PWINO PNO
KE16 030615Z AUTO 14004KT 10SM CLR 16/13 A3007 RMK AO2 PWINO PNO
KE16 030555Z AUTO 14003KT 10SM CLR 17/13 A3007 RMK AO2 PWINO PNO
KE16 030535Z AUTO 16004KT 10SM CLR 17/13 A3007 RMK AO2 PWINO PNO
KE16 030515Z AUTO 15004KT 10SM CLR 17/13 A3007 RMK AO2 PWINO PNO
KE16 030455Z AUTO 15005KT 10SM CLR 18/13 A3006 RMK AO2 PWINO PNO
KE16 030435Z AUTO 13005KT 10SM CLR 18/13 A3006 RMK AO2 PWINO PNO
KE16 030415Z AUTO 13006KT 10SM CLR 19/12 A3005 RMK AO2 PWINO PNO
KE16 030355Z AUTO 15005KT 10SM CLR 20/12 A3004 RMK AO2 PWINO PNO
KE16 030335Z AUTO 14006KT 10SM CLR 21/12 A3003 RMK AO2 PWINO PNO
KE16 030315Z AUTO 12005KT 10SM CLR 23/13 A3003 RMK AO2 PWINO PNO
KE16 030255Z AUTO 32007KT 10SM CLR 25/13 A3002 RMK AO2 PWINO PNO
KE16 030235Z AUTO 32010G16KT 10SM CLR 26/13 A3001 RMK AO2 PWINO PNO
KE16 030215Z AUTO 31009KT 10SM CLR 27/13 A3001 RMK AO2 PWINO PNO
KE16 030155Z AUTO 33010KT 10SM CLR 28/12 A3001 RMK AO2 PWINO PNO
KE16 030135Z AUTO 33013KT 10SM CLR 28/12 A3001 RMK AO2 PWINO PNO
KE16 030115Z AUTO 10SM CLR 29/12 A3001 RMK AO2 PWINO PNO
KE16 030055Z AUTO 33011KT 10SM CLR 30/12 A3001 RMK AO2 PWINO PNO
KE16 030035Z AUTO 33013G16KT 10SM CLR 30/12 A3001 RMK AO2 PWINO PNO
KE16 030015Z AUTO 31011KT 10SM CLR 30/12 A3001 RMK AO2 PWINO PNO
KE16 022355Z AUTO 33011G15KT 10SM CLR 30/12 A3001 RMK AO2 PWINO PNO
KE16 022335Z AUTO 33011G17KT 10SM CLR 31/12 A3002 RMK AO2 PWINO PNO
KE16 022315Z AUTO 32009G14KT 10SM CLR 32/12 A3002 RMK AO2 PWINO PNO
KE16 022255Z AUTO 31009G15KT 9SM CLR 32/12 A3002 RMK AO2 PWINO PNO
KE16 022235Z AUTO 31009G14KT 10SM CLR 33/10 A3003 RMK AO2 PWINO PNO
KE16 022215Z AUTO 31010KT 10SM CLR 32/09 A3003 RMK AO2 PWINO PNO
KE16 022155Z AUTO 35008KT 290V350 10SM CLR 33/07 A3004 RMK AO2 PWINO PNO
KE16 022135Z AUTO 32005KT 10SM CLR 32/09 A3004 RMK AO2 PWINO PNO
KE16 022115Z AUTO 31006KT 10SM CLR 31/10 A3005 RMK AO2 PWINO PNO
KE16 022055Z AUTO 00000KT 10SM CLR 30/10 A3005 RMK AO2 PWINO PNO
KE16 022035Z AUTO 13004KT 10SM CLR 29/09 A3006 RMK AO2 PWINO PNO
KE16 022015Z AUTO 00000KT 10SM CLR 28/09 A3008 RMK AO2 PWINO PNO
KE16 021955Z AUTO 17003KT 10SM CLR 27/09 A3008 RMK AO2 PWINO PNO
KE16 021935Z AUTO 00000KT 10SM CLR 27/10 A3009 RMK AO2 PWINO PNO
KE16 021915Z AUTO 00000KT 10SM CLR 26/10 A3009 RMK AO2 PWINO PNO
KE16 021855Z AUTO 00000KT 10SM CLR 24/11 A3010 RMK AO2 PWINO PNO
KE16 021835Z AUTO 00000KT 10SM CLR 23/11 A3011 RMK AO2 PWINO PNO
KE16 021815Z AUTO 00000KT 10SM CLR 22/12 A3011 RMK AO2 PWINO PNO
KE16 021755Z AUTO 00000KT 10SM CLR 20/12 A3012 RMK AO2 PWINO PNO
KE16 021735Z AUTO 00000KT 10SM CLR 19/12 A3012 RMK AO2 PWINO PNO
KE16 021715Z AUTO 00000KT 10SM CLR 19/12 A3013 RMK AO2 PWINO PNO
KE16 021655Z AUTO 15003KT 10SM CLR 18/12 A3013 RMK AO2 PWINO PNO
KE16 021635Z AUTO 00000KT 10SM CLR 17/12 A3014 RMK AO2 PWINO PNO
KE16 021615Z AUTO 00000KT 10SM CLR 15/12 A3014 RMK AO2 PWINO PNO
KE16 021555Z AUTO 00000KT 10SM FEW008 15/12 A3014 RMK AO2 PWINO PNO
KE16 021535Z AUTO 10003KT 10SM BKN008 14/12 A3014 RMK AO2 PWINO PNO
KE16 021515Z AUTO 00000KT 10SM OVC006 13/12 A3015 RMK AO2 PWINO PNO
KE16 021455Z AUTO 10003KT 10SM OVC006 13/12 A3014 RMK AO2 PWINO PNO
KE16 021435Z AUTO 00000KT 10SM OVC007 13/11 A3014 RMK AO2 PWINO PNO
KE16 021415Z AUTO 00000KT 10SM OVC009 12/10 A3014 RMK AO2 PWINO PNO
KE16 021355Z AUTO 00000KT 10SM BKN009 12/09 A3014 RMK AO2 PWINO PNO
KE16 021335Z AUTO 00000KT 10SM SCT009 12/09 A3013 RMK AO2
KE16 021315Z AUTO 00000KT 10SM CLR 11/09 A3013 RMK AO2
KE16 021255Z AUTO 00000KT 10SM CLR 11/09 A3012 RMK AO2
KE16 021235Z AUTO 00000KT 10SM CLR 12/10 A3012 RMK AO2
KE16 021215Z AUTO 00000KT 10SM CLR 12/10 A3011 RMK AO2
KE16 021155Z AUTO 00000KT 10SM 12/10 A3010 RMK AO2
KE16 021135Z AUTO 00000KT 10SM CLR 12/09 A3010 RMK AO2
KE16 021115Z AUTO 00000KT 10SM CLR 13/10 A3010 RMK AO2
KE16 021055Z AUTO 00000KT 10SM CLR 12/10 A3010 RMK AO2
KE16 021035Z AUTO 00000KT 10SM CLR 12/10 A3010 RMK AO2
KE16 021015Z AUTO 00000KT 10SM CLR 13/10 A3010 RMK AO2
KE16 020955Z AUTO 00000KT 10SM FEW017 13/10 A3011 RMK AO2
KE16 020935Z AUTO 00000KT 10SM 13/11 A3011 RMK AO2
KE16 020915Z AUTO 00000KT 10SM 13/10 A3011 RMK AO2
KE16 020855Z AUTO 00000KT 10SM 14/11 A3012 RMK AO2
KE16 020835Z AUTO 00000KT 10SM 14/11 A3012 RMK AO2 PWINO PNO
KE16 020815Z AUTO 14004KT 10SM SCT015 14/12 A3012 RMK AO2 PWINO PNO
KE16 020755Z AUTO 17003KT 10SM SCT015 15/12 A3012 RMK AO2 PWINO PNO
KE16 020735Z AUTO 16004KT 10SM SCT017 15/12 A3011 RMK AO2 PWINO PNO
KE16 020715Z AUTO 14004KT 10SM FEW017 15/12 A3011 RMK AO2 PWINO PNO
KE16 020655Z AUTO 14005KT 10SM FEW017 15/12 A3011 RMK AO2 PWINO PNO
KE16 020635Z AUTO 17004KT 10SM FEW017 15/12 A3012 RMK AO2 PWINO PNO
KE16 020615Z AUTO 16006KT 10SM 16/12 A3011 RMK AO2 PWINO PNO
KE16 020555Z AUTO 16005KT 10SM BKN017 17/11 A3011 RMK AO2 PWINO PNO
KE16 020535Z AUTO 16005KT 10SM BKN017 17/11 A3011 RMK AO2 PWINO PNO
KE16 020515Z AUTO 17004KT 10SM FEW019 17/11 A3010 RMK AO2 PWINO PNO
KE16 020455Z AUTO 15005KT 10SM FEW019 17/11 A3010 RMK AO2 PWINO PNO
KE16 020435Z AUTO 15005KT 10SM SCT019 18/11 A3009 RMK AO2 PWINO PNO
KE16 020415Z AUTO 16006KT 10SM SCT019 18/11 A3008 RMK AO2 PWINO PNO
KE16 020355Z AUTO 15009KT 10SM SCT022 18/12 A3008 RMK AO2 PWINO PNO
KE16 020335Z AUTO 14010KT 10SM CLR 19/12 A3007 RMK AO2 PWINO PNO
KE16 020315Z AUTO 14008KT 10SM CLR 19/12 A3007 RMK AO2 PWINO PNO
KE16 020255Z AUTO 17009KT 10SM CLR 20/12 A3006 RMK AO2 PWINO PNO
KE16 020235Z AUTO 16009KT 10SM CLR 20/12 A3005 RMK AO2 PWINO PNO
KE16 020215Z AUTO 20012KT 10SM CLR 22/12 A3005 RMK AO2 PWINO PNO
KE16 020155Z AUTO 19010KT 10SM CLR 22/12 A3004 RMK AO2 PWINO PNO
KE16 020135Z AUTO 18012KT 10SM CLR 23/12 A3003 RMK AO2 PWINO PNO
KE16 020115Z AUTO 17011G15KT 10SM CLR 24/12 A3003 RMK AO2 PWINO PNO
KE16 020055Z AUTO 18009KT 10SM CLR 25/12 A3003 RMK AO2 PWINO PNO
KE16 020035Z AUTO 18007G14KT 10SM CLR 25/12 A3003 RMK AO2 PWINO PNO
KE16 020015Z AUTO 19008KT 10SM CLR 26/12 A3003 RMK AO2 PWINO PNO
KE16 012355Z AUTO 19008KT 10SM CLR 27/12 A3003 RMK AO2 PWINO PNO
KE16 012335Z AUTO 18010G14KT 10SM CLR 27/12 A3003 RMK AO2 PWINO PNO
KE16 012315Z AUTO 18010G15KT 10SM CLR 27/12 A3003 RMK AO2 PWINO PNO
KE16 012255Z AUTO 19009KT 10SM CLR 27/12 A3004 RMK AO2 PWINO PNO
KE16 012235Z AUTO 18009KT 10SM CLR 27/13 A3004 RMK AO2 PWINO PNO
KE16 012215Z AUTO 17009G14KT 10SM CLR 27/13 A3004 RMK AO2 PWINO PNO
KE16 012155Z AUTO 10SM CLR 26/13 A3005 RMK AO2 PWINO PNO
KE16 012135Z AUTO 20010KT 10SM CLR 27/13 A3005 RMK AO2 PWINO PNO
KE16 012115Z AUTO 21010KT 10SM CLR 26/12 A3005 RMK AO2 PWINO PNO
KE16 012055Z AUTO 10SM CLR 27/13 A3005 RMK AO2 PWINO PNO
KE16 012035Z AUTO 14007KT 10SM CLR 26/12 A3005 RMK AO2 PWINO PNO
KE16 012015Z AUTO 00000KT 10SM CLR 25/13 A3006 RMK AO2 PWINO PNO
KE16 011955Z AUTO 17005KT 10SM CLR 24/12 A3007 RMK AO2 PWINO PNO
KE16 011935Z AUTO 14003KT 10SM CLR 23/12 A3007 RMK AO2 PWINO PNO
KE16 011915Z AUTO 12004KT 10SM CLR 22/13 A3008 RMK AO2 PWINO PNO